Amargosa Valley, Nevada
Current Conditions -  °F | °C
As of 2:52 PM on Thursday 27 Nov 2014 (Local Time) from KDRA Reporting Station
Clear Clear  
Wind Chill: 63°   Ceiling: Unl
Heat Index: 63°   Visibility: 10mi
Dew Point: 14°   Wind: 8mph
Humidity: 15%   Direction: 110°ESE
Pressure: 30.19"   Gusts: NA
Location:  36.64°N, 116.4°W
Report Text: KDRA 272252Z AUTO 11007KT 10SM CLR 17/M10 A3019 RMK AO2 SLP204 T01721100 $
Loading
Personal Weather Stations






























Interactive Weather Map New forecast layout! Learn more

10-Day Weather Forecast

Advertisements
Track Severe Weather on mobile